createdAt,value
2023-02-12T00:00:55.390Z,102420.03
2023-02-12T00:02:00.779Z,102422.69
2023-02-12T00:03:03.573Z,102411.16
2023-02-12T00:04:06.182Z,102413.78
2023-02-12T00:05:08.378Z,102420.91
2023-02-12T00:06:11.251Z,102414.69
2023-02-12T00:07:14.004Z,102415.56
2023-02-12T00:08:16.466Z,102421.78
2023-02-12T00:09:18.849Z,102417.31
2023-02-12T00:10:21.175Z,102415.56
2023-02-12T00:11:26.671Z,102414.69
2023-02-12T00:12:28.890Z,102420.94
2023-02-12T00:13:31.609Z,102422.72
2023-02-12T00:14:34.779Z,102420.06
2023-02-12T00:15:41.175Z,102419.16
2023-02-12T00:16:43.641Z,102422.72
2023-02-12T00:17:45.899Z,102407.66
2023-02-12T00:18:51.079Z,102412.97
2023-02-12T00:19:53.498Z,102416.50
2023-02-12T00:20:58.957Z,102420.06
2023-02-12T00:22:01.366Z,102425.44
2023-02-12T00:23:03.931Z,102428.97
2023-02-12T00:24:06.332Z,102434.31
2023-02-12T00:25:08.716Z,102434.28
2023-02-12T00:26:14.492Z,102440.47
2023-02-12T00:27:22.128Z,102441.31
2023-02-12T00:28:25.632Z,102443.13
2023-02-12T00:29:27.846Z,102442.25
2023-02-12T00:30:30.137Z,102453.84
2023-02-12T00:31:32.758Z,102438.72
2023-02-12T00:32:35.180Z,102441.38
2023-02-12T00:33:37.536Z,102444.06
2023-02-12T00:34:40.598Z,102439.59
2023-02-12T00:35:42.968Z,102436.94
2023-02-12T00:36:45.411Z,102434.22
2023-02-12T00:37:47.826Z,102438.63
2023-02-12T00:38:52.824Z,102446.63
2023-02-12T00:39:55.304Z,102448.34
2023-02-12T00:40:57.847Z,102448.34
2023-02-12T00:42:00.351Z,102451.94
2023-02-12T00:43:03.191Z,102445.75
2023-02-12T00:44:05.451Z,102451.06
2023-02-12T00:45:10.367Z,102448.44
2023-02-12T00:46:13.063Z,102451.97
2023-02-12T00:47:17.150Z,102457.31
2023-02-12T00:48:19.579Z,102460.88
2023-02-12T00:49:21.859Z,102446.69
2023-02-12T00:50:24.082Z,102458.25
2023-02-12T00:51:26.408Z,102457.34
2023-02-12T00:52:28.866Z,102462.66
2023-02-12T00:53:32.074Z,102452.00
2023-02-12T00:54:34.307Z,102460.00
2023-02-12T00:55:36.704Z,102459.09
2023-02-12T00:56:38.950Z,102455.56
2023-02-12T00:57:41.362Z,102456.44
2023-02-12T00:58:43.653Z,102457.31
2023-02-12T00:59:45.903Z,102457.31
2023-02-12T01:00:48.212Z,102463.50
2023-02-12T01:01:51.577Z,102462.63
2023-02-12T01:02:54.076Z,102458.16
2023-02-12T01:03:56.316Z,102469.69
2023-02-12T01:04:58.704Z,102468.78
2023-02-12T01:06:01.394Z,102465.22
2023-02-12T01:07:03.669Z,102473.22
2023-02-12T01:08:06.332Z,102456.38
2023-02-12T01:09:08.674Z,102470.63
2023-02-12T01:10:11.052Z,102465.28
2023-02-12T01:11:14.013Z,102462.59
2023-02-12T01:12:16.443Z,102469.72
2023-02-12T01:13:19.218Z,102465.25
2023-02-12T01:14:23.056Z,102469.69
2023-02-12T01:15:25.326Z,102467.00
2023-02-12T01:16:28.033Z,102472.31
2023-02-12T01:17:31.132Z,102463.41
2023-02-12T01:18:33.659Z,102473.22
2023-02-12T01:19:35.893Z,102466.97
2023-02-12T01:20:40.123Z,102465.19
2023-02-12T01:21:42.626Z,102466.97
2023-02-12T01:22:45.173Z,102458.97
2023-02-12T01:23:49.126Z,102463.34
2023-02-12T01:24:51.425Z,102458.94
2023-02-12T01:25:54.226Z,102465.16
2023-02-12T01:26:56.839Z,102461.59
2023-02-12T01:27:59.265Z,102468.69
2023-02-12T01:29:04.204Z,102462.50
2023-02-12T01:30:09.577Z,102474.88
2023-02-12T01:31:18.156Z,102470.47
2023-02-12T01:32:20.562Z,102473.13
2023-02-12T01:33:23.267Z,102472.25
2023-02-12T01:34:25.576Z,102473.16
2023-02-12T01:35:27.952Z,102472.25
2023-02-12T01:36:31.126Z,102476.72
2023-02-12T01:37:35.994Z,102473.16
2023-02-12T01:38:39.042Z,102470.50
2023-02-12T01:39:41.278Z,102474.00
2023-02-12T01:40:43.520Z,102468.72
2023-02-12T01:41:46.258Z,102466.09
2023-02-12T01:42:48.445Z,102475.88
2023-02-12T01:44:16.183Z,102462.53
2023-02-12T01:45:36.764Z,102461.69
2023-02-12T01:46:39.584Z,102464.31
2023-02-12T01:47:43.870Z,102457.19
2023-02-12T01:48:48.373Z,102458.94
2023-02-12T01:49:50.771Z,102467.84
2023-02-12T01:50:54.448Z,102461.63
2023-02-12T01:52:22.139Z,102464.28
2023-02-12T01:53:29.783Z,102466.09
2023-02-12T01:54:36.284Z,102472.28
2023-02-12T01:55:39.339Z,102474.03
2023-02-12T01:56:42.689Z,102474.06
2023-02-12T01:57:47.453Z,102474.09
2023-02-12T01:58:52.657Z,102476.72
2023-02-12T01:59:58.112Z,102482.03
2023-02-12T02:01:03.969Z,102481.16
2023-02-12T02:02:07.253Z,102479.41
2023-02-12T02:03:09.851Z,102473.19
2023-02-12T02:04:16.277Z,102480.28
2023-02-12T02:05:41.404Z,102478.53
2023-02-12T02:07:03.070Z,102482.03
2023-02-12T02:08:05.858Z,102479.31
2023-02-12T02:09:08.747Z,102484.75
2023-02-12T02:10:11.407Z,102485.59
2023-02-12T02:11:32.173Z,102483.81
2023-02-12T02:12:55.213Z,102487.38
2023-02-12T02:14:16.214Z,102492.78
2023-02-12T02:15:18.967Z,102497.16
2023-02-12T02:16:26.853Z,102496.25
2023-02-12T02:17:38.398Z,102490.94
2023-02-12T02:18:40.554Z,102488.34
2023-02-12T02:20:04.245Z,102483.84
2023-02-12T02:21:31.546Z,102484.72
2023-02-12T02:22:40.004Z,102492.69
2023-02-12T02:24:09.716Z,102482.94
2023-02-12T02:25:36.557Z,102487.38
2023-02-12T02:27:18.870Z,102498.06
2023-02-12T02:28:54.073Z,102499.81
2023-02-12T02:30:20.577Z,102492.72
2023-02-12T02:31:38.311Z,102486.53
2023-02-12T02:32:54.222Z,102496.34
2023-02-12T02:34:05.079Z,102495.44
2023-02-12T02:35:26.503Z,102492.78
2023-02-12T02:36:59.196Z,102499.88
2023-02-12T02:38:21.283Z,102496.31
2023-02-12T02:39:29.167Z,102498.09
2023-02-12T02:40:46.850Z,102494.53
2023-02-12T02:42:04.335Z,102506.97
2023-02-12T02:43:16.394Z,102506.94
2023-02-12T02:44:27.144Z,102501.66
2023-02-12T02:45:43.343Z,102506.13
2023-02-12T02:46:54.620Z,102504.38
2023-02-12T02:48:08.959Z,102495.44
2023-02-12T02:49:19.156Z,102499.91
2023-02-12T02:50:25.983Z,102504.31
2023-02-12T02:51:33.551Z,102506.13
2023-02-12T02:52:43.231Z,102506.09
2023-02-12T02:53:51.829Z,102503.44
2023-02-12T02:54:58.866Z,102510.50
2023-02-12T02:56:05.558Z,102503.44
2023-02-12T02:57:17.267Z,102499.88
2023-02-12T02:58:35.506Z,102511.44
2023-02-12T02:59:45.232Z,102511.47
2023-02-12T03:01:11.471Z,102510.56
2023-02-12T03:02:33.748Z,102514.16
2023-02-12T03:03:45.173Z,102516.88
2023-02-12T03:05:03.112Z,102516.84
2023-02-12T03:06:11.809Z,102509.72
2023-02-12T03:07:24.614Z,102528.38
2023-02-12T03:08:34.305Z,102517.78
2023-02-12T03:10:01.481Z,102527.53
2023-02-12T03:11:13.863Z,102519.53
2023-02-12T03:12:23.502Z,102518.69
2023-02-12T03:13:32.559Z,102521.34
2023-02-12T03:15:14.218Z,102518.69
2023-02-12T03:16:25.708Z,102524.91
2023-02-12T03:17:37.548Z,102524.94
2023-02-12T03:18:52.236Z,102536.44
2023-02-12T03:20:22.147Z,102534.63
2023-02-12T03:21:32.985Z,102537.31
2023-02-12T03:22:37.568Z,102536.44
2023-02-12T03:23:52.612Z,102538.28
2023-02-12T03:25:00.594Z,102540.00
2023-02-12T03:26:14.199Z,102542.72
2023-02-12T03:27:22.031Z,102541.84
2023-02-12T03:28:44.484Z,102551.59
2023-02-12T03:29:47.358Z,102544.47
2023-02-12T03:31:00.206Z,102549.75
2023-02-12T03:32:05.397Z,102552.44
2023-02-12T03:33:07.615Z,102546.22
2023-02-12T03:34:15.398Z,102541.84
2023-02-12T03:35:26.356Z,102553.34
2023-02-12T03:36:47.271Z,102562.19
2023-02-12T03:38:15.941Z,102553.31
2023-02-12T03:39:47.222Z,102554.22
2023-02-12T03:41:14.556Z,102555.09
2023-02-12T03:42:34.327Z,102562.25
2023-02-12T03:43:54.516Z,102567.56
2023-02-12T03:45:14.338Z,102564.84
2023-02-12T03:46:38.662Z,102568.38
2023-02-12T03:47:49.998Z,102563.03
2023-02-12T03:49:03.745Z,102571.88
2023-02-12T03:50:17.670Z,102568.31
2023-02-12T03:51:30.506Z,102565.72
2023-02-12T03:52:33.646Z,102566.63
2023-02-12T03:53:36.159Z,102567.50
2023-02-12T03:54:39.291Z,102572.84
2023-02-12T03:55:45.685Z,102571.94
2023-02-12T03:57:02.460Z,102570.16
2023-02-12T03:58:10.319Z,102577.25
2023-02-12T03:59:12.786Z,102575.50
2023-02-12T04:00:19.566Z,102571.03
2023-02-12T04:01:22.838Z,102574.53
2023-02-12T04:02:25.781Z,102578.19
2023-02-12T04:03:30.196Z,102581.66
2023-02-12T04:04:32.916Z,102582.56
2023-02-12T04:05:35.311Z,102581.63
2023-02-12T04:06:37.923Z,102582.53
2023-02-12T04:07:40.341Z,102587.03
2023-02-12T04:08:42.558Z,102585.25
2023-02-12T04:09:45.078Z,102588.84
2023-02-12T04:11:29.486Z,102591.44
2023-02-12T04:13:11.270Z,102589.66
2023-02-12T04:14:54.624Z,102584.31
2023-02-12T04:16:08.807Z,102594.03
2023-02-12T04:17:46.894Z,102595.78
2023-02-12T04:18:49.768Z,102590.44
2023-02-12T04:20:07.872Z,102602.00
2023-02-12T04:21:21.049Z,102610.06
2023-02-12T04:22:26.259Z,102602.09
2023-02-12T04:23:57.310Z,102609.16
2023-02-12T04:25:08.624Z,102607.44
2023-02-12T04:26:23.947Z,102612.75
2023-02-12T04:27:35.084Z,102620.69
2023-02-12T04:28:40.559Z,102611.75
2023-02-12T04:29:54.868Z,102618.84
2023-02-12T04:31:11.851Z,102625.13
2023-02-12T04:32:24.629Z,102615.38
2023-02-12T04:33:32.999Z,102617.16
2023-02-12T04:34:43.858Z,102620.63
2023-02-12T04:35:45.829Z,102626.81
2023-02-12T04:36:57.210Z,102618.84
2023-02-12T04:38:10.366Z,102626.84
2023-02-12T04:39:20.175Z,102624.22
2023-02-12T04:40:23.764Z,102618.88
2023-02-12T04:41:26.316Z,102629.53
2023-02-12T04:42:28.904Z,102624.22
2023-02-12T04:43:36.504Z,102627.78
2023-02-12T04:44:43.915Z,102629.56
2023-02-12T04:45:46.372Z,102628.63
2023-02-12T04:46:48.664Z,102631.28
2023-02-12T04:47:51.483Z,102627.75
2023-02-12T04:48:58.401Z,102626.00
2023-02-12T04:50:00.817Z,102630.41
2023-02-12T04:51:03.395Z,102631.34
2023-02-12T04:52:05.667Z,102627.81
2023-02-12T04:53:09.383Z,102630.47
2023-02-12T04:54:11.552Z,102636.75
2023-02-12T04:55:14.164Z,102627.91
2023-02-12T04:56:17.255Z,102626.13
2023-02-12T04:57:19.459Z,102627.97
2023-02-12T04:58:21.669Z,102637.75
2023-02-12T04:59:24.123Z,102631.50
2023-02-12T05:00:26.907Z,102633.22
2023-02-12T05:01:31.358Z,102628.75
2023-02-12T05:02:34.738Z,102639.41
2023-02-12T05:03:37.211Z,102629.69
2023-02-12T05:04:39.539Z,102632.38
2023-02-12T05:05:41.990Z,102635.03
2023-02-12T05:06:45.450Z,102632.38
2023-02-12T05:07:48.293Z,102637.69
2023-02-12T05:08:53.300Z,102634.16
2023-02-12T05:09:55.819Z,102632.41
2023-02-12T05:10:58.279Z,102631.53
2023-02-12T05:12:00.631Z,102636.88
2023-02-12T05:13:03.162Z,102640.34
2023-02-12T05:14:05.403Z,102643.97
2023-02-12T05:15:08.179Z,102653.69
2023-02-12T05:16:10.635Z,102639.47
2023-02-12T05:17:13.165Z,102649.19
2023-02-12T05:18:15.512Z,102650.09
2023-02-12T05:19:17.764Z,102647.44
2023-02-12T05:20:20.026Z,102646.50
2023-02-12T05:21:22.608Z,102649.19
2023-02-12T05:22:24.852Z,102648.31
2023-02-12T05:23:28.713Z,102648.34
2023-02-12T05:24:30.904Z,102643.03
2023-02-12T05:25:33.157Z,102644.72
2023-02-12T05:26:36.828Z,102645.59
2023-02-12T05:27:39.068Z,102642.97
2023-02-12T05:28:41.509Z,102635.91
2023-02-12T05:29:43.667Z,102634.16
2023-02-12T05:30:45.940Z,102635.91
2023-02-12T05:31:48.583Z,102647.53
2023-02-12T05:32:50.851Z,102644.88
2023-02-12T05:33:53.438Z,102642.22
2023-02-12T05:34:55.600Z,102645.75
2023-02-12T05:36:06.671Z,102651.03
2023-02-12T05:37:08.869Z,102651.09
2023-02-12T05:38:11.120Z,102653.78
2023-02-12T05:39:13.302Z,102649.34
2023-02-12T05:40:16.023Z,102656.44
2023-02-12T05:41:21.033Z,102659.97
2023-02-12T05:42:23.214Z,102655.56
2023-02-12T05:43:25.362Z,102659.06
2023-02-12T05:44:27.522Z,102661.75
2023-02-12T05:45:29.911Z,102655.56
2023-02-12T05:46:32.780Z,102660.88
2023-02-12T05:47:34.983Z,102659.13
2023-02-12T05:48:38.303Z,102662.63
2023-02-12T05:49:40.712Z,102659.06
2023-02-12T05:50:43.091Z,102658.19
2023-02-12T05:51:45.451Z,102660.78
2023-02-12T05:52:47.751Z,102658.13
2023-02-12T05:53:53.013Z,102667.03
2023-02-12T05:54:55.190Z,102661.69
2023-02-12T05:56:27.877Z,102659.97
2023-02-12T05:57:30.253Z,102662.66
2023-02-12T05:58:32.428Z,102665.22
2023-02-12T05:59:34.653Z,102673.19
2023-02-12T06:00:37.014Z,102673.13
2023-02-12T06:01:41.804Z,102679.38
2023-02-12T06:02:44.225Z,102674.03
2023-02-12T06:03:46.486Z,102674.97
2023-02-12T06:04:48.928Z,102675.78
2023-02-12T06:05:52.141Z,102679.34
2023-02-12T06:06:55.940Z,102679.44
2023-02-12T06:07:58.349Z,102681.19
2023-02-12T06:09:01.368Z,102672.31
2023-02-12T06:10:04.005Z,102675.00
2023-02-12T06:11:09.179Z,102676.84
2023-02-12T06:12:11.769Z,102680.53
2023-02-12T06:13:13.962Z,102683.09
2023-02-12T06:14:18.346Z,102684.88
2023-02-12T06:15:20.934Z,102686.63
2023-02-12T06:16:25.940Z,102683.94
2023-02-12T06:17:28.508Z,102682.09
2023-02-12T06:18:31.015Z,102684.84
2023-02-12T06:19:33.769Z,102689.31
2023-02-12T06:20:39.409Z,102694.59
2023-02-12T06:21:41.990Z,102691.03
2023-02-12T06:22:45.491Z,102692.75
2023-02-12T06:23:49.074Z,102692.72
2023-02-12T06:24:51.335Z,102694.50
2023-02-12T06:25:57.247Z,102694.44
2023-02-12T06:26:59.810Z,102692.69
2023-02-12T06:28:02.343Z,102703.34
2023-02-12T06:29:04.664Z,102692.69
2023-02-12T06:30:07.490Z,102700.72
2023-02-12T06:31:19.216Z,102703.41
2023-02-12T06:32:22.503Z,102706.97
2023-02-12T06:33:24.965Z,102705.19
2023-02-12T06:34:27.276Z,102710.56
2023-02-12T06:35:29.478Z,102709.66
2023-02-12T06:36:31.784Z,102708.84
2023-02-12T06:37:37.214Z,102710.72
2023-02-12T06:38:39.625Z,102704.50
2023-02-12T06:39:41.964Z,102713.41
2023-02-12T06:40:44.368Z,102712.53
2023-02-12T06:41:46.591Z,102713.44
2023-02-12T06:42:50.359Z,102714.34
2023-02-12T06:43:52.613Z,102719.59
2023-02-12T06:44:54.796Z,102717.81
2023-02-12T06:46:00.175Z,102719.56
2023-02-12T06:47:02.472Z,102714.28
2023-02-12T06:48:05.217Z,102717.84
2023-02-12T06:49:07.755Z,102721.41
2023-02-12T06:50:10.545Z,102720.56
2023-02-12T06:51:18.176Z,102723.34
2023-02-12T06:52:21.294Z,102731.38
2023-02-12T06:53:23.640Z,102728.69
2023-02-12T06:54:25.779Z,102724.22
2023-02-12T06:55:27.980Z,102732.19
2023-02-12T06:56:30.156Z,102736.56
2023-02-12T06:57:32.339Z,102731.16
2023-02-12T06:58:34.882Z,102732.13
2023-02-12T06:59:37.046Z,102736.56
2023-02-12T07:00:39.333Z,102735.66
2023-02-12T07:01:42.383Z,102733.78
2023-02-12T07:02:44.563Z,102729.31
2023-02-12T07:03:59.406Z,102731.06
2023-02-12T07:05:01.609Z,102733.78
2023-02-12T07:06:04.062Z,102737.50
2023-02-12T07:07:06.272Z,102736.59
2023-02-12T07:08:09.147Z,102746.41
2023-02-12T07:09:11.708Z,102738.44
2023-02-12T07:10:13.976Z,102737.59
2023-02-12T07:11:16.810Z,102733.13
2023-02-12T07:12:19.195Z,102742.88
2023-02-12T07:13:21.421Z,102735.75
2023-02-12T07:14:23.832Z,102745.53
2023-02-12T07:15:26.106Z,102744.59
2023-02-12T07:16:28.987Z,102742.72
2023-02-12T07:17:31.503Z,102742.69
2023-02-12T07:18:37.737Z,102750.75
2023-02-12T07:19:39.905Z,102742.75
2023-02-12T07:20:42.103Z,102747.22
2023-02-12T07:21:44.541Z,102746.34
2023-02-12T07:22:46.816Z,102754.25
2023-02-12T07:23:51.693Z,102749.75
2023-02-12T07:24:54.053Z,102755.09
2023-02-12T07:26:01.739Z,102759.50
2023-02-12T07:27:04.010Z,102763.91
2023-02-12T07:28:06.369Z,102759.53
2023-02-12T07:29:09.266Z,102760.53
2023-02-12T07:30:11.863Z,102762.34
2023-02-12T07:31:19.484Z,102768.50
2023-02-12T07:32:21.786Z,102774.66
2023-02-12T07:33:23.924Z,102768.47
2023-02-12T07:34:26.504Z,102758.72
2023-02-12T07:35:28.677Z,102775.63
2023-02-12T07:36:33.211Z,102776.59
2023-02-12T07:37:35.371Z,102775.72
2023-02-12T07:38:39.895Z,102775.72
2023-02-12T07:39:42.559Z,102773.03
2023-02-12T07:40:44.713Z,102775.69
2023-02-12T07:41:47.041Z,102779.19
2023-02-12T07:42:55.172Z,102777.47
2023-02-12T07:44:07.416Z,102787.28
2023-02-12T07:45:10.383Z,102781.88
2023-02-12T07:46:17.253Z,102787.19
2023-02-12T07:47:19.789Z,102789.81
2023-02-12T07:48:21.988Z,102794.25
2023-02-12T07:49:24.208Z,102786.19
2023-02-12T07:50:26.463Z,102795.97
2023-02-12T07:51:29.069Z,102795.16
2023-02-12T07:52:31.316Z,102803.06
2023-02-12T07:53:34.635Z,102796.06
2023-02-12T07:54:37.000Z,102792.53
2023-02-12T07:55:39.628Z,102797.91
2023-02-12T07:56:43.272Z,102797.06
2023-02-12T07:57:45.487Z,102795.31
2023-02-12T07:58:50.234Z,102797.16
2023-02-12T07:59:53.167Z,102800.66
2023-02-12T08:00:55.344Z,102802.38
2023-02-12T08:01:58.642Z,102802.38
2023-02-12T08:03:00.841Z,102802.41
2023-02-12T08:04:06.864Z,102807.81
2023-02-12T08:05:09.277Z,102805.09
2023-02-12T08:06:19.651Z,102801.47
2023-02-12T08:07:22.010Z,102807.75
2023-02-12T08:08:24.254Z,102801.56
2023-02-12T08:09:31.000Z,102810.41
2023-02-12T08:10:33.393Z,102810.41
2023-02-12T08:11:36.870Z,102814.94
2023-02-12T08:12:39.291Z,102810.47
2023-02-12T08:13:41.675Z,102806.91
2023-02-12T08:14:44.483Z,102813.09
2023-02-12T08:15:46.880Z,102808.59
2023-02-12T08:16:49.968Z,102815.72
2023-02-12T08:17:52.414Z,102815.72
2023-02-12T08:18:56.167Z,102818.41
2023-02-12T08:19:58.699Z,102813.94
2023-02-12T08:21:09.871Z,102817.53
2023-02-12T08:22:13.109Z,102823.72
2023-02-12T08:23:15.469Z,102825.50
2023-02-12T08:24:17.755Z,102824.63
2023-02-12T08:25:20.186Z,102821.03
2023-02-12T08:26:31.293Z,102821.94
2023-02-12T08:27:33.621Z,102822.00
2023-02-12T08:28:36.622Z,102822.81
2023-02-12T08:29:39.009Z,102825.56
2023-02-12T08:30:41.328Z,102826.50
2023-02-12T08:31:46.309Z,102828.31
2023-02-12T08:32:51.066Z,102828.34
2023-02-12T08:33:54.415Z,102831.06
2023-02-12T08:34:56.570Z,102826.69
2023-02-12T08:36:11.444Z,102829.44
2023-02-12T08:37:13.796Z,102824.97
2023-02-12T08:38:15.960Z,102828.59
2023-02-12T08:39:19.160Z,102826.88
2023-02-12T08:40:21.431Z,102830.38
2023-02-12T08:41:26.556Z,102817.84
2023-02-12T08:42:29.612Z,102816.91
2023-02-12T08:43:32.081Z,102818.69
2023-02-12T08:44:34.255Z,102819.56
2023-02-12T08:45:36.830Z,102824.00
2023-02-12T08:46:43.319Z,102810.72
2023-02-12T08:47:48.041Z,102823.25
2023-02-12T08:48:54.284Z,102820.63
2023-02-12T08:49:56.477Z,102810.81
2023-02-12T08:51:09.918Z,102818.81
2023-02-12T08:52:12.061Z,102820.56
2023-02-12T08:53:14.515Z,102820.56
2023-02-12T08:54:25.475Z,102822.34
2023-02-12T08:55:28.224Z,102827.69
2023-02-12T08:56:31.945Z,102834.78
2023-02-12T08:57:35.352Z,102825.97
2023-02-12T08:58:37.987Z,102838.44
2023-02-12T08:59:40.156Z,102833.94
2023-02-12T09:00:42.808Z,102833.97
2023-02-12T09:01:53.231Z,102833.06
2023-02-12T09:02:55.545Z,102834.03
2023-02-12T09:03:57.931Z,102842.91
2023-02-12T09:05:00.115Z,102843.72
2023-02-12T09:06:03.951Z,102837.53
2023-02-12T09:07:07.782Z,102841.06
2023-02-12T09:08:11.067Z,102845.53
2023-02-12T09:09:14.238Z,102852.72
2023-02-12T09:10:17.111Z,102840.25
2023-02-12T09:11:30.942Z,102844.69
2023-02-12T09:12:33.207Z,102855.41
2023-02-12T09:13:36.265Z,102853.63
2023-02-12T09:14:38.672Z,102854.53
2023-02-12T09:15:45.199Z,102855.38
2023-02-12T09:16:47.469Z,102850.91
2023-02-12T09:17:49.750Z,102857.94
2023-02-12T09:18:51.943Z,102855.28
2023-02-12T09:19:54.844Z,102855.22
2023-02-12T09:21:06.076Z,102852.56
2023-02-12T09:22:08.282Z,102858.88
2023-02-12T09:23:13.010Z,102862.53
2023-02-12T09:24:15.128Z,102867.91
2023-02-12T09:25:17.418Z,102862.59
2023-02-12T09:26:22.763Z,102866.19
2023-02-12T09:27:25.105Z,102868.91
2023-02-12T09:28:27.486Z,102862.66
2023-02-12T09:29:29.702Z,102870.72
2023-02-12T09:30:31.860Z,102860.84
2023-02-12T09:31:34.728Z,102865.22
2023-02-12T09:32:37.320Z,102866.09
2023-02-12T09:33:39.851Z,102858.97
2023-02-12T09:34:42.278Z,102868.75
2023-02-12T09:35:44.451Z,102871.38
2023-02-12T09:36:46.677Z,102868.69
2023-02-12T09:37:48.847Z,102873.19
2023-02-12T09:38:51.173Z,102865.13
2023-02-12T09:39:53.524Z,102868.59
2023-02-12T09:41:10.508Z,102872.19
2023-02-12T09:42:44.520Z,102871.31
2023-02-12T09:43:59.536Z,102878.41
2023-02-12T09:45:13.298Z,102870.41
2023-02-12T09:46:29.749Z,102867.69
2023-02-12T09:47:56.558Z,102871.19
2023-02-12T09:49:16.250Z,102874.81
2023-02-12T09:50:45.063Z,102878.56
2023-02-12T09:51:53.885Z,102876.88
2023-02-12T09:52:59.279Z,102876.88
2023-02-12T09:54:16.341Z,102882.25
2023-02-12T09:55:19.572Z,102879.50
2023-02-12T09:56:24.375Z,102881.25
2023-02-12T09:57:35.283Z,102883.91
2023-02-12T09:58:49.061Z,102886.66
2023-02-12T10:00:31.598Z,102884.00
2023-02-12T10:01:34.627Z,102889.38
2023-02-12T10:02:39.165Z,102892.09
2023-02-12T10:03:42.464Z,102887.63
2023-02-12T10:05:00.312Z,102882.28
2023-02-12T10:06:07.677Z,102888.53
2023-02-12T10:07:31.621Z,102892.88
2023-02-12T10:08:40.662Z,102889.28
2023-02-12T10:10:15.261Z,102889.22
2023-02-12T10:11:30.563Z,102894.50
2023-02-12T10:12:49.918Z,102893.59
2023-02-12T10:13:59.622Z,102885.59
2023-02-12T10:15:12.753Z,102894.56
2023-02-12T10:16:38.538Z,102886.69
2023-02-12T10:18:08.153Z,102881.38
2023-02-12T10:19:22.284Z,102883.16
2023-02-12T10:20:48.179Z,102890.16
2023-02-12T10:22:21.601Z,102893.69
2023-02-12T10:23:41.245Z,102880.31
2023-02-12T10:25:01.719Z,102880.34
2023-02-12T10:26:26.207Z,102882.09
2023-02-12T10:27:45.164Z,102880.34
2023-02-12T10:28:47.999Z,102883.88
2023-02-12T10:29:51.584Z,102882.13
2023-02-12T10:30:59.399Z,102884.00
2023-02-12T10:32:23.199Z,102876.78
2023-02-12T10:33:31.832Z,102880.38
2023-02-12T10:34:36.843Z,102878.59
2023-02-12T10:35:45.735Z,102880.38
2023-02-12T10:36:50.187Z,102875.09
2023-02-12T10:38:01.496Z,102876.84
2023-02-12T10:39:19.976Z,102886.66
2023-02-12T10:40:33.935Z,102878.69
2023-02-12T10:41:52.205Z,102883.13
2023-02-12T10:42:54.963Z,102880.50
2023-02-12T10:43:57.822Z,102876.97
2023-02-12T10:44:59.997Z,102876.09
2023-02-12T10:46:02.570Z,102873.44
2023-02-12T10:47:04.819Z,102872.56
2023-02-12T10:48:22.484Z,102873.41
2023-02-12T10:49:24.918Z,102876.97
2023-02-12T10:51:04.480Z,102879.69
2023-02-12T10:52:19.341Z,102881.44
2023-02-12T10:53:34.196Z,102881.31
2023-02-12T10:54:43.571Z,102876.03
2023-02-12T10:55:45.775Z,102877.78
2023-02-12T10:56:48.171Z,102874.22
2023-02-12T10:57:51.338Z,102872.44
2023-02-12T10:58:56.351Z,102878.72
2023-02-12T11:00:25.328Z,102870.72
2023-02-12T11:01:32.195Z,102878.72
2023-02-12T11:02:34.690Z,102874.28
2023-02-12T11:03:40.050Z,102877.84
2023-02-12T11:04:42.682Z,102871.66
2023-02-12T11:05:45.183Z,102868.09
2023-02-12T11:07:09.771Z,102872.59
2023-02-12T11:08:35.008Z,102866.41
2023-02-12T11:09:45.415Z,102864.66
2023-02-12T11:10:48.561Z,102862.88
2023-02-12T11:11:50.744Z,102864.63
2023-02-12T11:12:53.668Z,102861.03
2023-02-12T11:14:03.389Z,102859.25
2023-02-12T11:15:17.387Z,102855.69
2023-02-12T11:16:44.884Z,102856.59
2023-02-12T11:18:00.656Z,102856.63
2023-02-12T11:19:08.775Z,102865.53
2023-02-12T11:20:17.457Z,102856.63
2023-02-12T11:21:23.416Z,102855.78
2023-02-12T11:22:25.646Z,102862.88
2023-02-12T11:23:40.457Z,102861.09
2023-02-12T11:24:42.941Z,102857.56
2023-02-12T11:25:56.297Z,102857.56
2023-02-12T11:27:16.944Z,102862.00
2023-02-12T11:28:19.720Z,102867.34
2023-02-12T11:29:26.730Z,102862.00
2023-02-12T11:30:29.661Z,102852.19
2023-02-12T11:31:35.281Z,102864.69
2023-02-12T11:32:38.065Z,102852.22
2023-02-12T11:33:40.299Z,102853.09
2023-02-12T11:34:42.514Z,102862.00
2023-02-12T11:35:53.969Z,102857.53
2023-02-12T11:36:57.483Z,102855.75
2023-02-12T11:38:00.858Z,102848.63
2023-02-12T11:39:04.022Z,102843.28
2023-02-12T11:40:06.817Z,102850.41
2023-02-12T11:41:36.570Z,102844.16
2023-02-12T11:42:40.153Z,102846.84
2023-02-12T11:43:42.461Z,102845.94
2023-02-12T11:44:51.856Z,102839.72
2023-02-12T11:45:56.409Z,102843.28
2023-02-12T11:47:09.306Z,102847.78
2023-02-12T11:48:45.024Z,102833.50
2023-02-12T11:49:54.715Z,102834.38
2023-02-12T11:50:59.289Z,102832.53
2023-02-12T11:52:04.397Z,102839.63
2023-02-12T11:53:10.195Z,102834.28
2023-02-12T11:54:20.985Z,102828.06
2023-02-12T11:55:26.562Z,102831.63
2023-02-12T11:56:46.738Z,102834.28
2023-02-12T11:57:51.960Z,102828.97
2023-02-12T11:58:55.533Z,102835.22
2023-02-12T12:00:01.483Z,102827.22
2023-02-12T12:01:28.271Z,102823.66
2023-02-12T12:02:39.569Z,102824.53
2023-02-12T12:03:49.544Z,102824.53
2023-02-12T12:04:56.146Z,102821.84
2023-02-12T12:06:07.884Z,102823.63
2023-02-12T12:07:33.565Z,102816.56
2023-02-12T12:08:43.589Z,102825.50
2023-02-12T12:09:55.924Z,102823.72
2023-02-12T12:11:12.718Z,102822.81
2023-02-12T12:12:46.832Z,102824.59
2023-02-12T12:14:07.288Z,102819.25
2023-02-12T12:15:47.048Z,102818.34
2023-02-12T12:17:19.281Z,102817.47
2023-02-12T12:19:06.399Z,102816.59
2023-02-12T12:20:17.267Z,102819.25
2023-02-12T12:22:02.643Z,102819.19
2023-02-12T12:23:30.956Z,102820.09
2023-02-12T12:24:44.111Z,102816.53
2023-02-12T12:25:49.770Z,102819.19
2023-02-12T12:27:04.486Z,102823.69
2023-02-12T12:28:33.523Z,102816.56
2023-02-12T12:30:03.518Z,102816.59
2023-02-12T12:31:36.540Z,102817.44
2023-02-12T12:32:41.988Z,102813.91
2023-02-12T12:34:02.596Z,102807.66
2023-02-12T12:35:11.059Z,102812.13
2023-02-12T12:36:13.253Z,102804.97
2023-02-12T12:37:40.408Z,102813.88
2023-02-12T12:38:50.486Z,102806.75
2023-02-12T12:40:07.742Z,102806.78
2023-02-12T12:41:20.079Z,102804.97
2023-02-12T12:42:51.483Z,102807.66
2023-02-12T12:44:05.112Z,102792.50
2023-02-12T12:45:47.110Z,102801.38
2023-02-12T12:47:10.930Z,102791.56
2023-02-12T12:48:52.849Z,102786.22
2023-02-12T12:50:18.445Z,102787.09
2023-02-12T12:51:29.482Z,102785.28
2023-02-12T12:53:24.935Z,102787.94
2023-02-12T12:54:40.659Z,102787.03
2023-02-12T12:56:16.732Z,102793.25
2023-02-12T12:57:28.016Z,102785.25